Time;durP1;ratioP1;P1;durP2;ratioP2;P2;SDS_P1;SDS_P2;PMS_P1;PMS_P2;Temp;Humidity;BMP_temperature;BMP_pressure;BME280_temperature;BME280_humidity;BME280_pressure;Samples;Min_cycle;Max_cycle;Signal;HPM_P1;HPM_P2
2022/04/21 00:00:14;;;;;;;5.35;3.95;;;13.50;46.00;;;;;;4931760;29;20047;-76
2022/04/21 00:02:41;;;;;;;4.85;3.53;;;13.50;46.00;;;;;;4930989;29;20012;-76
2022/04/21 00:05:08;;;;;;;4.18;3.28;;;13.40;46.00;;;;;;4930126;29;20084;-77
2022/04/21 00:07:34;;;;;;;4.90;3.78;;;13.40;45.90;;;;;;4932355;29;20032;-76
2022/04/21 00:10:00;;;;;;;5.30;2.90;;;13.40;46.00;;;;;;4928975;28;20040;-77
2022/04/21 00:12:26;;;;;;;4.95;4.15;;;13.40;46.00;;;;;;4928844;29;20028;-76
2022/04/21 00:14:52;;;;;;;4.85;4.35;;;13.40;46.00;;;;;;4935579;29;20063;-76
2022/04/21 00:17:18;;;;;;;5.22;3.47;;;13.30;45.90;;;;;;4927635;29;20039;-76
2022/04/21 00:19:44;;;;;;;5.13;3.42;;;13.30;45.90;;;;;;4926481;29;20032;-76
2022/04/21 00:24:54;;;;;;;5.60;3.15;;;13.30;46.00;;;;;;4917665;29;20044;-75
2022/04/21 00:27:20;;;;;;;5.38;3.53;;;13.30;46.00;;;;;;4906179;29;20491;-75
2022/04/21 00:29:46;;;;;;;3.92;3.00;;;13.20;45.90;;;;;;4907458;29;20036;-76
2022/04/21 00:32:13;;;;;;;5.05;3.70;;;13.20;45.90;;;;;;4895974;29;20131;-75
2022/04/21 00:34:39;;;;;;;6.22;4.35;;;13.20;46.00;;;;;;4897926;29;20361;-75
2022/04/21 00:37:05;;;;;;;4.47;3.92;;;13.20;46.00;;;;;;4901374;29;20115;-75
2022/04/21 00:39:32;;;;;;;4.60;2.88;;;13.10;45.90;;;;;;4906030;29;20040;-75
2022/04/21 00:41:58;;;;;;;3.85;3.00;;;13.20;46.10;;;;;;4902908;29;20037;-75
2022/04/21 00:44:25;;;;;;;3.88;3.22;;;13.10;46.00;;;;;;4905832;29;20048;-75
2022/04/21 00:46:53;;;;;;;3.80;2.63;;;13.10;46.00;;;;;;4900688;29;20044;-75
2022/04/21 00:49:21;;;;;;;3.47;3.17;;;13.00;45.90;;;;;;4904763;29;20043;-75
2022/04/21 00:51:49;;;;;;;4.10;2.90;;;13.00;45.90;;;;;;4905415;29;20192;-76
2022/04/21 00:54:16;;;;;;;2.55;2.35;;;13.00;46.00;;;;;;4901115;29;20021;-75
2022/04/21 00:56:43;;;;;;;4.97;3.20;;;13.00;46.60;;;;;;4906141;29;20368;-75
2022/04/21 00:59:12;;;;;;;4.03;3.17;;;13.00;46.10;;;;;;4901681;29;20087;-75
2022/04/21 01:04:24;;;;;;;4.10;2.85;;;12.90;45.90;;;;;;4907646;29;20039;-76
2022/04/21 01:06:54;;;;;;;6.82;3.00;;;12.90;46.00;;;;;;4908158;29;20080;-75
2022/04/21 01:09:21;;;;;;;2.60;2.40;;;12.90;46.00;;;;;;4903037;29;20032;-76
2022/04/21 01:11:48;;;;;;;3.60;2.10;;;12.90;46.00;;;;;;4894112;29;20032;-76
2022/04/21 01:14:15;;;;;;;3.20;2.25;;;12.90;46.00;;;;;;4905100;29;20324;-75
2022/04/21 01:16:41;;;;;;;4.03;2.75;;;12.90;46.00;;;;;;4905741;29;20032;-76
2022/04/21 01:19:07;;;;;;;4.65;3.15;;;12.90;46.00;;;;;;4907636;29;20083;-76
2022/04/21 01:21:33;;;;;;;4.75;2.80;;;12.90;46.00;;;;;;4905348;29;20052;-76
2022/04/21 01:23:59;;;;;;;4.07;2.55;;;12.80;45.80;;;;;;4895558;29;20032;-76
2022/04/21 01:26:36;;;;;;;4.00;2.78;;;12.80;45.80;;;;;;4905433;29;20599;-76
2022/04/21 01:29:04;;;;;;;5.03;3.17;;;12.80;45.80;;;;;;4897994;29;20028;-76
2022/04/21 01:31:30;;;;;;;3.63;2.63;;;12.80;45.80;;;;;;4906991;29;20070;-76
2022/04/21 01:33:56;;;;;;;3.83;2.55;;;12.80;45.80;;;;;;4899172;29;20032;-77
2022/04/21 01:36:22;;;;;;;4.45;2.70;;;12.80;45.80;;;;;;4906001;29;20107;-76
2022/04/21 01:41:33;;;;;;;5.80;2.67;;;12.80;45.80;;;;;;4905873;29;20036;-76
2022/04/21 01:43:59;;;;;;;3.58;2.53;;;12.80;45.80;;;;;;4904976;29;20943;-76
2022/04/21 01:46:24;;;;;;;4.80;2.60;;;12.80;45.90;;;;;;4957973;23;20057;-92
2022/04/21 01:48:50;;;;;;;3.63;2.88;;;12.80;46.10;;;;;;4968627;28;20577;-89
2022/04/21 01:51:16;;;;;;;3.28;2.50;;;12.80;45.90;;;;;;4948858;28;20058;-87
2022/04/21 01:53:42;;;;;;;3.90;2.72;;;12.70;45.80;;;;;;4968988;28;20031;-87
2022/04/21 01:56:08;;;;;;;3.60;2.72;;;12.70;45.80;;;;;;4968164;28;20069;-88
2022/04/21 01:58:34;;;;;;;3.35;2.80;;;12.70;45.90;;;;;;4967576;28;20030;-88
2022/04/21 02:01:00;;;;;;;3.95;3.30;;;12.70;45.90;;;;;;4971432;28;20050;-88
2022/04/21 02:03:27;;;;;;;4.32;2.70;;;12.60;45.80;;;;;;4972319;28;20062;-87
2022/04/21 02:05:53;;;;;;;3.70;2.92;;;12.60;45.80;;;;;;4970380;28;20050;-88
2022/04/21 02:08:19;;;;;;;3.70;2.40;;;12.60;45.90;;;;;;4984427;28;20442;-87
2022/04/21 02:10:45;;;;;;;5.05;3.00;;;12.60;45.90;;;;;;4967474;28;20089;-88
2022/04/21 02:13:11;;;;;;;4.03;2.90;;;12.50;45.80;;;;;;4966975;28;20027;-86
2022/04/21 02:15:37;;;;;;;4.97;3.00;;;12.50;45.80;;;;;;4962246;28;20027;-88
2022/04/21 02:18:03;;;;;;;4.72;3.58;;;12.50;45.90;;;;;;4967553;28;20043;-87
2022/04/21 02:20:29;;;;;;;3.80;3.00;;;12.50;45.90;;;;;;4968305;28;20161;-88
2022/04/21 02:22:55;;;;;;;6.57;3.92;;;12.50;46.00;;;;;;4956365;28;20275;-88
2022/04/21 02:25:21;;;;;;;3.95;3.42;;;12.40;45.80;;;;;;4966344;28;20031;-87
2022/04/21 02:27:48;;;;;;;6.13;3.15;;;12.40;45.80;;;;;;4968407;28;20031;-88
2022/04/21 02:30:16;;;;;;;5.28;3.25;;;12.40;45.90;;;;;;4968554;28;20037;-88
2022/04/21 02:32:42;;;;;;;4.90;2.90;;;12.40;45.90;;;;;;4952111;28;20034;-88
2022/04/21 02:35:11;;;;;;;6.40;3.63;;;12.30;45.70;;;;;;4983100;28;20084;-88
2022/04/21 02:37:45;;;;;;;4.00;3.05;;;12.30;45.80;;;;;;4967353;28;20081;-89
2022/04/21 02:40:12;;;;;;;4.75;3.35;;;12.30;45.80;;;;;;4944689;29;20050;-89
2022/04/21 02:42:38;;;;;;;6.53;3.40;;;12.20;45.70;;;;;;4947927;28;20027;-89
2022/04/21 02:45:06;;;;;;;4.43;3.97;;;12.20;45.70;;;;;;4933818;28;20046;-89
2022/04/21 02:47:34;;;;;;;3.58;2.90;;;12.20;45.70;;;;;;4953022;28;20051;-91
2022/04/21 02:50:00;;;;;;;4.63;3.35;;;12.10;45.60;;;;;;4936038;28;20031;-91
2022/04/21 02:52:27;;;;;;;5.25;3.13;;;12.10;45.70;;;;;;4952666;28;20475;-90
2022/04/21 02:57:38;;;;;;;5.15;3.45;;;12.00;45.60;;;;;;4952579;28;20035;-90
2022/04/21 03:00:06;;;;;;;4.00;3.10;;;12.00;45.60;;;;;;4947393;28;20027;-90
2022/04/21 03:02:32;;;;;;;3.45;2.83;;;12.00;45.70;;;;;;4953715;28;20074;-90
2022/04/21 03:04:58;;;;;;;5.63;3.50;;;12.00;45.70;;;;;;4948988;29;20036;-91
2022/04/21 03:07:24;;;;;;;4.47;3.17;;;11.90;45.60;;;;;;4947611;29;20031;-89
2022/04/21 03:09:53;;;;;;;4.65;3.08;;;11.90;45.60;;;;;;4951328;28;20491;-89
2022/04/21 03:12:22;;;;;;;4.53;3.13;;;11.90;45.70;;;;;;4950983;29;20058;-90
2022/04/21 03:14:49;;;;;;;3.28;2.85;;;11.80;45.60;;;;;;4954810;28;20087;-90
2022/04/21 03:17:15;;;;;;;7.28;4.22;;;11.90;46.40;;;;;;4952254;29;20031;-90
2022/04/21 03:19:41;;;;;;;3.83;3.25;;;11.80;45.70;;;;;;4952901;28;20039;-92
2022/04/21 03:25:05;;;;;;;4.47;3.00;;;11.80;45.80;;;;;;4951080;28;20483;-93
2022/04/21 03:27:32;;;;;;;3.55;3.25;;;11.80;45.80;;;;;;4966069;28;20086;-92
2022/04/21 03:29:58;;;;;;;5.22;3.47;;;11.80;45.80;;;;;;4956175;29;20031;-94
2022/04/21 03:32:26;;;;;;;2.80;2.53;;;11.70;45.70;;;;;;4937561;29;20106;-89
2022/04/21 03:34:56;;;;;;;3.92;3.08;;;11.70;45.70;;;;;;4954948;28;20045;-90
2022/04/21 03:37:23;;;;;;;3.08;2.60;;;11.70;45.80;;;;;;4938169;28;20456;-90
2022/04/21 03:39:48;;;;;;;3.30;2.58;;;11.70;45.80;;;;;;4948535;28;20042;-89
2022/04/21 03:42:23;;;;;;;3.50;2.80;;;11.60;45.70;;;;;;4930524;29;20404;-89
2022/04/21 03:44:50;;;;;;;3.75;3.13;;;11.60;45.80;;;;;;4952629;28;20134;-88
2022/04/21 03:47:16;;;;;;;3.58;3.13;;;11.60;45.70;;;;;;4952943;28;20220;-87
2022/04/21 03:49:42;;;;;;;3.58;3.03;;;11.60;45.80;;;;;;4945926;29;20106;-87
2022/04/21 03:52:11;;;;;;;3.40;3.10;;;11.60;45.90;;;;;;4967587;28;20035;-89
2022/04/21 03:54:38;;;;;;;5.95;3.85;;;11.50;45.70;;;;;;4951246;29;20031;-89
2022/04/21 03:57:05;;;;;;;6.28;3.85;;;11.50;45.70;;;;;;4967365;28;20049;-88
2022/04/21 03:59:32;;;;;;;3.80;3.40;;;11.50;45.80;;;;;;4952649;28;20031;-88
2022/04/21 04:02:03;;;;;;;4.63;3.38;;;11.50;45.80;;;;;;4954419;28;20133;-88
2022/04/21 04:04:30;;;;;;;2.95;2.47;;;11.50;45.90;;;;;;4952769;28;20027;-89
2022/04/21 04:12:33;;;;;;;4.68;2.83;;;11.50;46.00;;;;;;4986493;28;20027;-91
2022/04/21 04:14:59;;;;;;;;;;;11.50;46.00;;;;;;4954822;29;20039;-91
2022/04/21 04:17:26;;;;;;;5.05;3.92;;;11.50;45.90;;;;;;4950907;28;19916;-94
2022/04/21 04:19:52;;;;;;;4.93;2.90;;;11.40;45.60;;;;;;4933077;29;20028;-93
2022/04/21 04:22:18;;;;;;;5.60;3.20;;;11.40;45.70;;;;;;4950723;28;20023;-93
2022/04/21 04:24:44;;;;;;;3.70;3.30;;;11.40;45.70;;;;;;4954515;28;20039;-92
2022/04/21 04:27:10;;;;;;;4.20;3.58;;;11.40;45.80;;;;;;4950664;29;20539;-86
2022/04/21 04:29:37;;;;;;;4.25;3.85;;;11.40;45.80;;;;;;4951524;28;20031;-88
2022/04/21 04:32:03;;;;;;;3.53;3.20;;;11.40;45.80;;;;;;4952290;28;20316;-87
2022/04/21 04:34:29;;;;;;;4.10;3.25;;;11.40;45.90;;;;;;4950715;29;20480;-89
2022/04/21 04:36:58;;;;;;;3.35;3.05;;;11.40;45.90;;;;;;4951484;28;20046;-88
2022/04/21 04:39:24;;;;;;;3.50;3.20;;;11.40;45.90;;;;;;4950190;28;20031;-91
2022/04/21 04:44:34;;;;;;;3.72;3.42;;;11.40;46.00;;;;;;4950796;28;20039;-91
2022/04/21 04:47:00;;;;;;;3.72;3.42;;;11.40;46.00;;;;;;4934140;28;20158;-88
2022/04/21 04:49:27;;;;;;;4.03;3.63;;;11.40;46.10;;;;;;4945543;28;20114;-90
2022/04/21 04:51:53;;;;;;;4.45;3.55;;;11.40;46.10;;;;;;4947667;28;20133;-91
2022/04/21 04:54:19;;;;;;;5.20;3.35;;;11.40;46.20;;;;;;4947438;28;20498;-91
2022/04/21 04:56:46;;;;;;;5.95;3.90;;;11.40;46.20;;;;;;4946276;28;20086;-85
2022/04/21 04:59:13;;;;;;;3.78;3.38;;;11.40;46.20;;;;;;4948145;28;20037;-85
2022/04/21 05:01:43;;;;;;;4.45;3.75;;;11.40;46.20;;;;;;4943565;28;20589;-87
2022/04/21 05:04:17;;;;;;;4.28;3.78;;;11.40;46.20;;;;;;4949982;28;20027;-88
2022/04/21 05:06:55;;;;;;;4.13;3.63;;;11.40;46.30;;;;;;4946487;28;20447;-88
2022/04/21 05:09:23;;;;;;;3.92;3.60;;;11.40;46.30;;;;;;4942765;28;20102;-88
2022/04/21 05:11:54;;;;;;;5.53;3.85;;;11.40;46.90;;;;;;4944191;29;20058;-92
2022/04/21 05:14:21;;;;;;;5.45;3.88;;;11.40;46.40;;;;;;4962920;28;20027;-93
2022/04/21 05:16:49;;;;;;;5.40;4.28;;;11.50;46.50;;;;;;4949458;28;20031;-93
2022/04/21 05:19:16;;;;;;;4.75;3.72;;;11.50;46.50;;;;;;4950592;28;20122;-94
2022/04/21 05:21:43;;;;;;;5.50;3.80;;;11.50;46.50;;;;;;4944702;29;20570;-83
2022/04/21 05:24:10;;;;;;;7.88;3.88;;;11.50;46.50;;;;;;4928657;28;20031;-81
2022/04/21 05:26:37;;;;;;;8.32;4.45;;;11.50;46.50;;;;;;4941021;29;20059;-85
2022/04/21 05:30:55;;;;;;;6.65;4.03;;;11.60;46.70;;;;;;4941551;28;20032;-86
2022/04/21 05:32:02;;;;;;;4.22;3.75;;;11.60;46.70;;;;;;4945840;28;20031;-84
2022/04/21 05:34:30;;;;;;;5.25;4.22;;;11.60;46.70;;;;;;4946445;28;20043;-92
2022/04/21 05:36:58;;;;;;;4.65;4.25;;;11.60;46.60;;;;;;4927686;29;20391;-88
2022/04/21 05:39:25;;;;;;;4.60;4.07;;;11.60;46.50;;;;;;4953590;28;20368;-90
2022/04/21 05:41:52;;;;;;;8.57;5.15;;;11.70;46.70;;;;;;4950307;29;20035;-88
2022/04/21 05:44:19;;;;;;;7.30;5.57;;;11.70;46.70;;;;;;4956259;29;20039;-88
2022/04/21 05:46:45;;;;;;;8.15;6.35;;;11.70;46.50;;;;;;4951454;28;20388;-89
2022/04/21 05:49:12;;;;;;;9.90;6.15;;;11.70;46.30;;;;;;4947482;28;20031;-87
2022/04/21 05:51:38;;;;;;;8.23;7.20;;;11.70;46.20;;;;;;4950034;29;20058;-89
2022/04/21 05:54:06;;;;;;;7.88;6.55;;;11.70;46.00;;;;;;4938179;28;20027;-91
2022/04/21 05:56:33;;;;;;;8.10;6.25;;;11.70;45.90;;;;;;4951154;28;20574;-91
2022/04/21 05:58:59;;;;;;;9.00;5.78;;;11.70;45.90;;;;;;4942566;29;20059;-91
2022/04/21 06:01:25;;;;;;;9.20;6.70;;;11.80;46.00;;;;;;4962720;28;20031;-93
2022/04/21 06:03:52;;;;;;;9.07;6.93;;;11.80;45.90;;;;;;4954865;29;20110;-94
2022/04/21 06:06:18;;;;;;;9.88;7.60;;;11.90;45.90;;;;;;4944862;28;20050;-91
2022/04/21 06:08:44;;;;;;;9.00;7.22;;;11.90;45.80;;;;;;4947812;28;20197;-92
2022/04/21 06:11:13;;;;;;;10.25;7.15;;;12.00;45.80;;;;;;4949120;29;20034;-94
2022/04/21 06:13:42;;;;;;;10.65;7.50;;;12.10;45.90;;;;;;4951897;29;20118;-85
2022/04/21 06:16:10;;;;;;;13.00;7.00;;;12.10;45.70;;;;;;4947816;28;20066;-93
2022/04/21 06:18:36;;;;;;;8.50;7.40;;;12.20;45.70;;;;;;4946998;28;20035;-90
2022/04/21 06:21:04;;;;;;;9.35;6.43;;;12.20;45.60;;;;;;4955207;28;20547;-86
2022/04/21 06:23:31;;;;;;;12.80;7.47;;;12.30;45.60;;;;;;4952259;28;20082;-84
2022/04/21 06:26:00;;;;;;;9.48;7.10;;;12.30;45.50;;;;;;4950886;29;20071;-91
2022/04/21 06:28:27;;;;;;;12.88;6.82;;;12.40;45.50;;;;;;4944569;28;20035;-94
2022/04/21 06:30:53;;;;;;;11.75;8.05;;;12.50;45.60;;;;;;4954584;28;20032;-86
2022/04/21 06:33:19;;;;;;;9.68;7.40;;;12.50;45.50;;;;;;4946674;28;20546;-95
2022/04/21 06:35:45;;;;;;;10.10;6.43;;;12.60;45.50;;;;;;4954586;29;20193;-94
2022/04/21 06:38:11;;;;;;;10.80;7.57;;;12.80;45.60;;;;;;4952130;28;20559;-91
2022/04/21 06:40:37;;;;;;;11.38;6.85;;;12.90;45.60;;;;;;4938681;29;20102;-92
2022/04/21 06:48:01;;;;;;;8.23;7.32;;;13.10;45.60;;;;;;4945306;29;20491;-92
2022/04/21 06:48:40;;;;;;;8.52;7.53;;;13.30;45.40;;;;;;4945847;28;20122;-91
2022/04/21 06:51:07;;;;;;;11.43;7.57;;;13.30;45.30;;;;;;4922296;29;20111;-93
2022/04/21 06:53:34;;;;;;;11.93;7.68;;;13.20;45.10;;;;;;4953909;28;20031;-92
2022/04/21 06:56:01;;;;;;;10.05;7.88;;;13.20;45.20;;;;;;4939921;29;20062;-93
2022/04/21 06:58:29;;;;;;;12.07;7.78;;;13.20;45.20;;;;;;4959481;28;20035;-93
2022/04/21 07:00:54;;;;;;;12.43;7.53;;;13.10;45.10;;;;;;4957188;28;20120;-93
2022/04/21 07:03:21;;;;;;;12.30;7.93;;;13.10;45.20;;;;;;4960862;28;20046;-92
2022/04/21 07:05:51;;;;;;;14.93;8.13;;;13.10;45.20;;;;;;4973213;28;20045;-93
2022/04/21 07:08:17;;;;;;;12.43;8.43;;;13.10;45.30;;;;;;4971709;28;20094;-89
2022/04/21 07:10:43;;;;;;;10.48;7.50;;;13.10;45.30;;;;;;4972824;28;20100;-93
2022/04/21 07:13:10;;;;;;;12.02;7.53;;;13.20;45.50;;;;;;4974091;28;20026;-89
2022/04/21 07:15:37;;;;;;;15.10;8.65;;;13.30;45.60;;;;;;4974084;28;20023;-91
2022/04/21 07:18:03;;;;;;;13.13;7.82;;;13.60;45.70;;;;;;4990446;28;20430;-87
2022/04/21 07:20:29;;;;;;;12.85;9.23;;;14.00;45.80;;;;;;4955413;29;20023;-89
2022/04/21 07:22:55;;;;;;;9.65;7.38;;;14.40;45.80;;;;;;4972520;28;20071;-90
2022/04/21 07:25:23;;;;;;;13.57;7.72;;;14.70;45.40;;;;;;4984223;28;20069;-91
2022/04/21 07:27:49;;;;;;;10.95;8.05;;;15.00;45.50;;;;;;4955011;28;20498;-90
2022/04/21 07:30:15;;;;;;;11.93;8.05;;;15.10;45.40;;;;;;4952707;28;20105;-92
2022/04/21 07:32:44;;;;;;;11.52;8.18;;;15.20;45.50;;;;;;4954139;28;20114;-92
2022/04/21 07:35:10;;;;;;;11.70;8.13;;;15.30;45.50;;;;;;4954258;28;20126;-87
2022/04/21 07:37:37;;;;;;;11.55;8.25;;;15.50;45.80;;;;;;4952699;28;20043;-94
2022/04/21 07:40:07;;;;;;;11.25;8.77;;;15.50;45.50;;;;;;4957024;28;20035;-94
2022/04/21 07:42:33;;;;;;;11.63;8.85;;;15.50;45.40;;;;;;4962847;28;20032;-93
2022/04/21 07:44:59;;;;;;;13.70;9.93;;;15.50;45.40;;;;;;4981778;28;20023;-94
2022/04/21 07:47:26;;;;;;;13.43;8.68;;;15.50;45.40;;;;;;4972086;28;20051;-93
2022/04/21 07:49:51;;;;;;;11.45;9.50;;;15.60;45.60;;;;;;4985477;28;20031;-88
2022/04/21 07:55:14;;;;;;;;;;;15.70;45.50;;;;;;4953053;29;20479;-93
2022/04/21 07:57:51;;;;;;;10.30;8.45;;;15.80;45.50;;;;;;4942501;28;19914;-91
2022/04/21 08:00:18;;;;;;;13.23;10.10;;;16.10;45.50;;;;;;4952579;29;20557;-91
2022/04/21 08:02:46;;;;;;;17.80;9.75;;;16.30;45.00;;;;;;4953655;28;20042;-90
2022/04/21 08:05:14;;;;;;;12.63;10.18;;;16.60;44.90;;;;;;4952519;28;20379;-95
2022/04/21 08:07:41;;;;;;;16.35;9.98;;;16.70;44.50;;;;;;4952653;28;20325;-86
2022/04/21 08:10:13;;;;;;;14.88;10.82;;;16.90;44.40;;;;;;4950432;28;20387;-90
2022/04/21 08:12:44;;;;;;;14.07;10.52;;;16.80;44.00;;;;;;4952278;28;20090;-90
2022/04/21 08:15:12;;;;;;;16.50;10.18;;;16.70;44.00;;;;;;4951020;28;20039;-86
2022/04/21 08:17:39;;;;;;;14.98;10.27;;;16.50;44.10;;;;;;4968073;28;20031;-90
2022/04/21 08:20:11;;;;;;;20.08;11.32;;;16.30;44.20;;;;;;4948255;28;20043;-88
2022/04/21 08:22:38;;;;;;;19.60;10.88;;;16.20;44.60;;;;;;4954584;28;20057;-90
2022/04/21 08:33:23;;;;;;;17.02;11.75;;;15.50;45.30;;;;;;4955779;28;20070;-91
2022/04/21 08:35:50;;;;;;;17.25;11.40;;;15.50;45.50;;;;;;4959558;28;20114;-85
2022/04/21 08:38:16;;;;;;;21.73;11.82;;;15.40;45.60;;;;;;4943724;28;20093;-88
2022/04/21 08:41:05;;;;;;;15.88;11.25;;;15.40;45.80;;;;;;4949003;29;20031;-86
2022/04/21 08:43:33;;;;;;;13.73;11.60;;;15.30;45.90;;;;;;4936207;29;20129;-87
2022/04/21 08:46:02;;;;;;;15.80;12.32;;;15.30;45.90;;;;;;4964455;28;20081;-90
2022/04/21 08:48:28;;;;;;;18.10;13.50;;;15.40;46.20;;;;;;4950003;28;20500;-85
2022/04/21 08:50:54;;;;;;;19.55;12.25;;;15.40;46.90;;;;;;4951566;28;20085;-87
2022/04/21 08:53:27;;;;;;;13.98;11.57;;;15.40;46.30;;;;;;4951766;28;20031;-87
2022/04/21 08:55:53;;;;;;;15.85;12.43;;;15.50;46.40;;;;;;4938712;29;20074;-87
2022/04/21 08:58:20;;;;;;;16.73;11.82;;;15.50;46.50;;;;;;4953475;28;20266;-88
2022/04/21 09:00:46;;;;;;;21.50;13.52;;;15.50;46.50;;;;;;4931611;29;20035;-88
2022/04/21 09:03:13;;;;;;;17.85;12.50;;;15.50;46.50;;;;;;4947785;28;20146;-88
2022/04/21 09:05:40;;;;;;;19.80;13.57;;;15.50;46.50;;;;;;4930505;29;20043;-88
2022/04/21 09:08:21;;;;;;;17.67;12.50;;;15.50;46.50;;;;;;4947541;28;20034;-87
2022/04/21 09:10:47;;;;;;;14.13;11.88;;;15.60;46.60;;;;;;4943112;28;20031;-88
2022/04/21 09:13:13;;;;;;;18.77;12.55;;;15.70;46.80;;;;;;4944556;28;20105;-88
2022/04/21 09:15:43;;;;;;;18.20;13.20;;;15.70;46.70;;;;;;4947327;29;20121;-88
2022/04/21 09:18:14;;;;;;;16.77;12.40;;;15.80;46.80;;;;;;4961587;28;20042;-85
2022/04/21 09:20:40;;;;;;;14.70;12.65;;;15.80;46.80;;;;;;4948503;28;20153;-86
2022/04/21 09:23:10;;;;;;;19.67;13.38;;;15.90;46.80;;;;;;4947218;28;20501;-86
2022/04/21 09:25:48;;;;;;;17.90;13.02;;;15.90;46.70;;;;;;4947436;29;20389;-90
2022/04/21 09:28:26;;;;;;;14.40;12.90;;;16.00;46.80;;;;;;4960656;28;20043;-90
2022/04/21 09:30:56;;;;;;;17.08;14.10;;;16.00;46.80;;;;;;4947744;28;20039;-91
2022/04/21 09:33:32;;;;;;;19.10;13.20;;;16.10;46.90;;;;;;4948543;28;20030;-90
2022/04/21 09:36:01;;;;;;;17.50;13.27;;;16.10;46.80;;;;;;4946112;28;20221;-90
2022/04/21 09:38:27;;;;;;;18.85;13.43;;;16.20;47.10;;;;;;4946806;28;20031;-91
2022/04/21 09:40:54;;;;;;;17.02;13.48;;;16.20;46.90;;;;;;4963116;28;20521;-90
2022/04/21 09:43:27;;;;;;;16.05;12.48;;;16.30;47.10;;;;;;4930300;29;20031;-89
2022/04/21 09:46:09;;;;;;;19.42;13.50;;;16.30;47.10;;;;;;4958318;28;20074;-85
2022/04/21 09:48:36;;;;;;;17.98;13.02;;;16.40;47.10;;;;;;4937117;28;20568;-90
2022/04/21 09:51:11;;;;;;;20.83;14.25;;;16.50;47.10;;;;;;4946451;29;20073;-88
2022/04/21 09:54:00;;;;;;;14.73;12.32;;;16.60;47.20;;;;;;4945477;28;20047;-85
2022/04/21 09:56:41;;;;;;;19.85;14.27;;;16.70;47.10;;;;;;4945984;29;20077;-90
2022/04/21 09:59:12;;;;;;;16.25;13.65;;;16.80;47.10;;;;;;4952621;28;20612;-85
2022/04/21 10:01:42;;;;;;;19.67;13.32;;;16.90;47.10;;;;;;4941751;28;20086;-85
2022/04/21 10:04:11;;;;;;;15.00;12.98;;;17.00;47.20;;;;;;4952481;28;20042;-88
2022/04/21 10:06:44;;;;;;;19.25;14.02;;;17.00;47.10;;;;;;4967682;28;20043;-90
2022/04/21 10:09:11;;;;;;;16.75;12.77;;;17.00;47.00;;;;;;4952027;28;20488;-89
2022/04/21 10:11:38;;;;;;;16.65;14.32;;;17.10;47.10;;;;;;4963525;28;20031;-85
2022/04/21 10:14:08;;;;;;;19.60;14.57;;;17.20;47.20;;;;;;4953185;28;20039;-88
2022/04/21 10:16:34;;;;;;;17.85;13.10;;;17.20;47.20;;;;;;4933695;29;20062;-90
2022/04/21 10:19:01;;;;;;;17.67;13.65;;;17.30;47.30;;;;;;4934875;29;20039;-86
2022/04/21 10:21:48;;;;;;;18.67;14.18;;;17.40;47.50;;;;;;4949812;29;20039;-90
2022/04/21 10:24:24;;;;;;;17.92;14.85;;;17.40;47.30;;;;;;4952065;28;20122;-89
2022/04/21 10:26:51;;;;;;;15.90;13.45;;;17.60;47.40;;;;;;4934335;29;20050;-85
2022/04/21 10:29:27;;;;;;;17.75;13.45;;;17.60;47.30;;;;;;4952311;28;20047;-83
2022/04/21 10:32:03;;;;;;;15.93;14.32;;;17.60;47.20;;;;;;4950100;29;20032;-83
2022/04/21 10:34:37;;;;;;;16.85;13.45;;;17.70;47.30;;;;;;4952232;28;20023;-86
2022/04/21 10:37:20;;;;;;;16.42;12.90;;;17.80;47.20;;;;;;4947780;28;20043;-85
2022/04/21 10:40:06;;;;;;;18.77;13.75;;;17.90;47.20;;;;;;4949953;28;20433;-83
2022/04/21 10:43:03;;;;;;;18.27;14.65;;;18.00;47.20;;;;;;4941914;28;20078;-82
2022/04/21 10:45:32;;;;;;;18.85;14.02;;;18.00;47.00;;;;;;4951661;28;20434;-83
2022/04/21 10:48:12;;;;;;;21.90;15.10;;;18.10;47.00;;;;;;4950013;28;20072;-81
2022/04/21 10:50:42;;;;;;;18.38;14.75;;;18.20;47.00;;;;;;4949899;28;20122;-83
2022/04/21 10:58:38;;;;;;;20.95;13.82;;;18.50;47.00;;;;;;4955099;28;20032;-84
2022/04/21 11:01:11;;;;;;;19.05;14.00;;;18.50;46.90;;;;;;4960437;28;20043;-81
2022/04/21 11:03:37;;;;;;;;;;;18.70;47.00;;;;;;4962034;28;20054;-83
2022/04/21 11:06:11;;;;;;;17.45;13.88;;;18.80;47.00;;;;;;4945705;28;20295;-83
2022/04/21 11:08:37;;;;;;;18.23;15.93;;;18.90;46.90;;;;;;4933065;29;20086;-83
2022/04/21 11:11:06;;;;;;;16.75;14.63;;;19.00;46.90;;;;;;4950359;28;20412;-83
2022/04/21 11:13:51;;;;;;;17.48;14.95;;;19.10;46.80;;;;;;4952819;28;20031;-82
2022/04/21 11:16:45;;;;;;;18.30;15.45;;;19.20;46.70;;;;;;4953728;28;20066;-83
2022/04/21 11:19:29;;;;;;;19.15;14.82;;;19.30;46.60;;;;;;4954191;28;20050;-82
2022/04/21 11:22:00;;;;;;;15.70;14.00;;;19.30;46.40;;;;;;4946755;29;20038;-82
2022/04/21 11:24:27;;;;;;;17.38;14.25;;;19.40;46.40;;;;;;4959790;28;20041;-83
2022/04/21 11:26:57;;;;;;;16.00;14.30;;;19.40;46.10;;;;;;4968447;28;20130;-80
2022/04/21 11:29:23;;;;;;;16.95;14.15;;;19.50;46.10;;;;;;4955668;28;20040;-81
2022/04/21 11:31:55;;;;;;;17.67;13.38;;;19.50;46.00;;;;;;4951621;28;20049;-81
2022/04/21 11:34:25;;;;;;;20.63;14.82;;;19.60;46.00;;;;;;4959331;28;20039;-83
2022/04/21 11:37:01;;;;;;;15.48;13.88;;;19.70;45.90;;;;;;4952288;29;20043;-84
2022/04/21 11:39:27;;;;;;;16.35;13.68;;;19.70;45.80;;;;;;4945207;29;20043;-82
2022/04/21 11:41:53;;;;;;;15.20;13.63;;;19.80;45.70;;;;;;4970713;28;20036;-83
2022/04/21 11:44:23;;;;;;;17.35;12.90;;;19.90;45.70;;;;;;4964484;29;20046;-84
2022/04/21 11:46:49;;;;;;;15.98;13.07;;;20.00;45.50;;;;;;4959486;29;20043;-87
2022/04/21 11:49:17;;;;;;;18.42;13.75;;;20.10;45.50;;;;;;4974923;28;20023;-87
2022/04/21 11:51:44;;;;;;;14.20;12.68;;;20.20;45.40;;;;;;4966912;28;20034;-87
2022/04/21 11:54:11;;;;;;;14.27;12.70;;;20.30;45.20;;;;;;4972096;28;20035;-87
2022/04/21 11:56:39;;;;;;;15.50;12.70;;;20.50;45.10;;;;;;4971951;28;20043;-86
2022/04/21 11:59:09;;;;;;;14.68;12.55;;;20.50;44.70;;;;;;4971416;28;20043;-84
2022/04/21 12:07:20;;;;;;;14.55;12.50;;;20.80;44.40;;;;;;4945254;28;20059;-83
2022/04/21 12:09:47;;;;;;;15.85;13.05;;;20.90;44.40;;;;;;4939572;28;20592;-84
2022/04/21 12:12:13;;;;;;;19.25;13.77;;;21.00;44.30;;;;;;4947962;28;20030;-84
2022/04/21 12:14:43;;;;;;;12.82;11.50;;;21.10;44.30;;;;;;4963830;28;20035;-84
2022/04/21 12:17:10;;;;;;;13.43;11.43;;;21.20;44.10;;;;;;4940369;28;20568;-83
2022/04/21 12:19:42;;;;;;;14.25;11.65;;;21.40;44.20;;;;;;4945166;28;20058;-84
2022/04/21 12:22:19;;;;;;;14.17;12.80;;;21.60;44.30;;;;;;4948403;28;20139;-85
2022/04/21 12:24:47;;;;;;;14.18;12.68;;;21.80;44.10;;;;;;4950196;28;20122;-84
2022/04/21 12:27:20;;;;;;;15.40;12.68;;;22.00;44.20;;;;;;4944387;28;20058;-85
2022/04/21 12:30:05;;;;;;;15.30;12.50;;;22.00;43.90;;;;;;4929633;29;20086;-84
2022/04/21 12:32:33;;;;;;;13.82;12.07;;;22.00;43.40;;;;;;4944819;28;20406;-84
2022/04/21 12:35:06;;;;;;;17.55;12.20;;;22.00;43.60;;;;;;4946914;28;20027;-84
2022/04/21 12:37:38;;;;;;;12.52;11.25;;;22.00;43.60;;;;;;4935958;28;20391;-84
2022/04/21 12:40:06;;;;;;;13.13;11.65;;;22.00;43.60;;;;;;4936018;29;20644;-82
2022/04/21 12:42:33;;;;;;;13.10;11.70;;;22.00;43.50;;;;;;4945438;29;20039;-82
2022/04/21 12:44:59;;;;;;;14.82;11.45;;;22.00;43.40;;;;;;4947709;28;20070;-82
2022/04/21 12:47:25;;;;;;;12.70;10.95;;;22.00;43.40;;;;;;4947796;28;20059;-83
2022/04/21 12:50:01;;;;;;;14.50;11.45;;;22.10;43.40;;;;;;4946535;28;20027;-83
2022/04/21 12:52:45;;;;;;;12.90;10.68;;;22.20;43.30;;;;;;4948607;29;20125;-84
2022/04/21 12:55:22;;;;;;;15.88;12.43;;;22.40;43.50;;;;;;4948715;28;20035;-85
2022/04/21 12:57:59;;;;;;;15.85;12.50;;;22.70;43.50;;;;;;4951771;28;20545;-84
2022/04/21 13:00:26;;;;;;;14.05;11.48;;;22.90;43.40;;;;;;4950956;28;20684;-84
2022/04/21 13:02:52;;;;;;;13.07;11.65;;;23.00;43.40;;;;;;4933136;29;20031;-84
2022/04/21 13:05:17;;;;;;;12.15;11.02;;;23.10;43.20;;;;;;4948249;28;20054;-84
2022/04/21 13:07:43;;;;;;;16.48;12.10;;;23.20;43.20;;;;;;4956612;28;20046;-84
2022/04/21 13:10:09;;;;;;;12.40;11.20;;;23.30;43.10;;;;;;4944223;28;20522;-83
2022/04/21 13:12:35;;;;;;;11.55;10.50;;;23.40;43.10;;;;;;4949516;29;20027;-84
2022/04/21 13:15:04;;;;;;;13.77;10.38;;;23.50;43.00;;;;;;4945454;29;20027;-84
2022/04/21 13:17:30;;;;;;;12.18;10.57;;;23.60;42.90;;;;;;4951505;28;20351;-85
2022/04/21 13:19:56;;;;;;;13.88;11.02;;;23.60;42.70;;;;;;4950044;28;20053;-84
2022/04/21 13:22:22;;;;;;;16.05;11.07;;;23.50;42.50;;;;;;4953074;28;20274;-83
2022/04/21 13:24:48;;;;;;;11.95;10.48;;;23.50;42.50;;;;;;4943719;28;20153;-82
2022/04/21 13:27:16;;;;;;;10.85;9.50;;;23.40;42.30;;;;;;4949793;29;20043;-83
2022/04/21 13:29:43;;;;;;;12.60;10.35;;;23.50;42.50;;;;;;4948455;28;20027;-84
2022/04/21 13:34:57;;;;;;;10.80;9.70;;;23.50;42.40;;;;;;4949536;28;20035;-81